Sandwich, United Kingdom
Current Conditions -  °F | °C
As of 6:50 PM on Thursday 23 Oct 2014 (Local Time) from EGMD Reporting Station
Broken Clouds Broken Clouds  
Wind Chill: 59°   Ceiling: 1400
Heat Index: 59°   Visibility: 5mi
Dew Point: 57°   Wind: 22mph
Humidity: 94%   Direction: 220°SW
Pressure: 30.12"   Gusts: NA
Location:  51.27°N, 1.34°E
Report Text: EGMD 231750Z 22019KT 8000 SCT006 BKN014 15/14 Q1020
Loading
Personal Weather Stations






























Interactive Weather Map
Tropical Storm Tracking
New forecast layout! Learn more

10-Day Weather Forecast

Advertisements
Track Severe Weather on mobile